KBRD/BRD METAR and TAF weather

Enter ICAO airport designator
Station Type Date Time Source
KBRD METAR 2018/07/21 10:53 UTC NOAA

KBRD 211053Z AUTO 03004KT 9SM OVC004 17/16 A3004 RMK AO2 SLP171 T01720156


Station Type Date Time Source
KBRD Decoded METAR 2018/07/21 10:53 UTC NOAA

BRAINERD-CROW WING CO AIRPORT , MN, United States (KBRD) 46-24N 94-08W 372M
Jul 21, 2018 - 06:53 AM EDT / 2018.07.21 1053 UTC
Wind: from the NNE (030 degrees) at 5 MPH (4 KT):0
Visibility: 9 mile(s):0
Sky conditions: overcast
Temperature: 63.0 F (17.2 C)
Dew Point: 60.1 F (15.6 C)
Relative Humidity: 90%
Pressure (altimeter): 30.04 in. Hg (1017 hPa)
ob: KBRD 211053Z AUTO 03004KT 9SM OVC004 17/16 A3004 RMK AO2 SLP171 T01720156
cycle: 11

Station Type Date Time Source
KBRD TAF 2018/07/21 12:42 UTC NOAA

TAF KBRD 211139Z 2112/2212 02005KT P6SM OVC003
TEMPO 2112/2113 3SM BR
FM211400 01005KT P6SM BKN010
FM211700 36007KT P6SM BKN030
FM212000 36007KT P6SM BKN050
FM220100 VRB04KT P6SM SCT100


Example: see airport list